Terminal Aerodrome Forecast
Issued by NWS Knoxville/Tri Cities, TN

Home | Current Version | Previous Version | Text Only | Print | Product List | Glossary On
Versions: 1 2 3 4 5 6 7 8 9 10 11 12 13 14 15 16 17 18 19 20 21 22
000
FTUS44 KMRX 230231 AAB
TAFTYS
TAF AMD
KTYS 230231Z 2303/2324 23006KT P6SM SCT050 BKN080
     FM230400 23008KT P6SM SCT010 OVC035
     FM231400 22010G20KT P6SM SCT020 BKN050
     FM231800 22015G25KT P6SM VCTS BKN050CB OVC250=

USA.gov is the U.S. government's official web portal to all federal, state and local government web resources and services.